createdAt,value
2019-04-30T00:01:19.513Z,2.30
2019-04-30T00:03:59.410Z,2.27
2019-04-30T00:06:34.487Z,2.20
2019-04-30T00:09:01.370Z,2.27
2019-04-30T00:11:31.600Z,2.10
2019-04-30T00:14:00.193Z,2.37
2019-04-30T00:16:31.110Z,1.90
2019-04-30T00:19:00.932Z,2.02
2019-04-30T00:21:29.509Z,1.92
2019-04-30T00:24:00.809Z,2.20
2019-04-30T00:26:28.355Z,2.10
2019-04-30T00:28:57.116Z,2.12
2019-04-30T00:31:27.419Z,2.02
2019-04-30T00:33:57.869Z,2.00
2019-04-30T00:36:29.060Z,1.90
2019-04-30T00:38:57.055Z,1.87
2019-04-30T00:41:25.692Z,2.15
2019-04-30T00:43:55.146Z,2.58
2019-04-30T00:46:27.287Z,2.45
2019-04-30T00:48:56.792Z,2.20
2019-04-30T00:51:26.235Z,2.00
2019-04-30T00:53:55.848Z,1.90
2019-04-30T00:56:28.081Z,2.17
2019-04-30T00:58:55.418Z,2.20
2019-04-30T01:02:02.276Z,2.00
2019-04-30T01:04:48.735Z,1.98
2019-04-30T01:07:17.330Z,1.80
2019-04-30T01:09:49.517Z,2.05
2019-04-30T01:12:19.155Z,1.80
2019-04-30T01:14:46.671Z,2.02
2019-04-30T01:17:15.441Z,1.95
2019-04-30T01:19:45.914Z,1.82
2019-04-30T01:22:14.271Z,1.60
2019-04-30T01:24:43.166Z,1.87
2019-04-30T01:27:13.492Z,2.05
2019-04-30T01:29:44.418Z,2.10
2019-04-30T01:32:17.436Z,1.95
2019-04-30T01:34:44.351Z,2.15
2019-04-30T01:37:13.456Z,1.95
2019-04-30T01:39:42.047Z,2.20
2019-04-30T01:42:11.486Z,1.90
2019-04-30T01:44:43.478Z,1.98
2019-04-30T01:47:10.612Z,2.22
2019-04-30T01:49:42.864Z,2.05
2019-04-30T01:52:09.621Z,2.20
2019-04-30T01:54:39.207Z,2.15
2019-04-30T01:57:25.380Z,1.90
2019-04-30T02:00:19.536Z,1.95
2019-04-30T02:02:49.517Z,1.82
2019-04-30T02:05:18.896Z,2.10
2019-04-30T02:07:48.647Z,2.42
2019-04-30T02:10:18.653Z,2.40
2019-04-30T02:12:49.183Z,2.22
2019-04-30T02:15:19.215Z,2.40
2019-04-30T02:17:50.202Z,2.30
2019-04-30T02:20:18.575Z,2.47
2019-04-30T02:22:48.616Z,2.58
2019-04-30T02:25:17.248Z,2.20
2019-04-30T02:27:45.902Z,2.20
2019-04-30T02:30:14.501Z,1.85
2019-04-30T02:32:43.245Z,2.30
2019-04-30T02:35:19.506Z,2.30
2019-04-30T02:38:06.157Z,2.05
2019-04-30T02:40:36.030Z,2.40
2019-04-30T02:43:05.073Z,2.67
2019-04-30T02:45:35.154Z,2.55
2019-04-30T02:48:04.120Z,2.40
2019-04-30T02:50:34.073Z,2.20
2019-04-30T02:53:04.161Z,2.65
2019-04-30T02:55:42.584Z,2.35
2019-04-30T02:58:11.338Z,2.20
2019-04-30T03:00:39.933Z,2.47
2019-04-30T03:03:10.236Z,2.80
2019-04-30T03:05:39.221Z,2.42
2019-04-30T03:08:09.631Z,2.60
2019-04-30T03:10:40.227Z,2.30
2019-04-30T03:13:09.849Z,2.58
2019-04-30T03:15:39.409Z,2.35
2019-04-30T03:18:22.991Z,2.27
2019-04-30T03:20:59.887Z,2.47
2019-04-30T03:23:29.375Z,2.20
2019-04-30T03:25:59.715Z,2.37
2019-04-30T03:28:30.086Z,2.62
2019-04-30T03:31:04.059Z,2.77
2019-04-30T03:33:32.628Z,2.67
2019-04-30T03:36:02.192Z,2.92
2019-04-30T03:38:30.154Z,2.67
2019-04-30T03:41:00.264Z,2.92
2019-04-30T03:43:30.155Z,3.05
2019-04-30T03:45:59.325Z,3.22
2019-04-30T03:48:29.755Z,3.10
2019-04-30T03:51:00.902Z,3.22
2019-04-30T03:53:29.864Z,3.70
2019-04-30T03:56:01.269Z,3.05
2019-04-30T03:58:29.327Z,3.55
2019-04-30T04:01:05.951Z,3.33
2019-04-30T04:03:37.081Z,3.40
2019-04-30T04:06:21.463Z,3.35
2019-04-30T04:08:57.144Z,3.52
2019-04-30T04:11:29.803Z,3.40
2019-04-30T04:13:59.678Z,3.45
2019-04-30T04:16:31.781Z,3.75
2019-04-30T04:18:59.862Z,3.35
2019-04-30T04:21:29.953Z,4.28
2019-04-30T04:24:00.217Z,3.75
2019-04-30T04:26:29.836Z,4.40
2019-04-30T04:28:59.446Z,3.60
2019-04-30T04:31:29.846Z,3.80
2019-04-30T04:34:00.111Z,3.47
2019-04-30T04:36:30.140Z,4.70
2019-04-30T04:39:00.204Z,4.55
2019-04-30T04:41:29.619Z,4.80
2019-04-30T04:44:00.110Z,4.45
2019-04-30T04:46:30.779Z,5.15
2019-04-30T04:48:59.656Z,5.22
2019-04-30T04:51:38.040Z,4.90
2019-04-30T04:54:00.192Z,4.72
2019-04-30T04:56:30.483Z,4.97
2019-04-30T04:59:00.251Z,4.40
2019-04-30T05:01:29.035Z,4.50
2019-04-30T05:03:59.128Z,4.53
2019-04-30T05:06:29.809Z,4.35
2019-04-30T05:08:59.198Z,4.97
2019-04-30T05:11:31.390Z,4.45
2019-04-30T05:13:58.980Z,4.78
2019-04-30T05:16:28.938Z,4.25
2019-04-30T05:18:58.621Z,4.60
2019-04-30T05:21:39.659Z,4.97
2019-04-30T05:23:59.083Z,5.12
2019-04-30T05:26:28.717Z,4.45
2019-04-30T05:28:59.129Z,4.85
2019-04-30T05:31:28.955Z,4.42
2019-04-30T05:33:58.736Z,4.72
2019-04-30T05:36:29.060Z,5.78
2019-04-30T05:38:58.759Z,5.05
2019-04-30T05:41:28.975Z,5.05
2019-04-30T05:43:59.158Z,5.17
2019-04-30T05:46:29.643Z,5.55
2019-04-30T05:48:59.402Z,5.17
2019-04-30T05:51:28.887Z,5.30
2019-04-30T05:53:59.256Z,5.72
2019-04-30T05:56:30.161Z,6.30
2019-04-30T05:58:59.331Z,6.03
2019-04-30T06:01:29.542Z,6.22
2019-04-30T06:03:59.463Z,5.80
2019-04-30T06:06:29.059Z,5.92
2019-04-30T06:09:06.676Z,5.92
2019-04-30T06:12:11.546Z,6.28
2019-04-30T06:14:49.305Z,5.97
2019-04-30T06:17:19.549Z,6.58
2019-04-30T06:19:51.439Z,6.72
2019-04-30T06:22:19.656Z,6.55
2019-04-30T06:24:49.535Z,6.83
2019-04-30T06:27:19.158Z,7.33
2019-04-30T06:29:49.001Z,7.47
2019-04-30T06:32:18.658Z,7.72
2019-04-30T06:34:49.727Z,7.75
2019-04-30T06:37:19.455Z,7.67
2019-04-30T06:39:50.012Z,7.67
2019-04-30T06:42:19.614Z,7.72
2019-04-30T06:44:49.449Z,8.53
2019-04-30T06:47:20.125Z,8.78
2019-04-30T06:49:48.959Z,8.08
2019-04-30T06:52:21.405Z,8.25
2019-04-30T06:54:49.862Z,8.45
2019-04-30T06:57:19.806Z,8.58
2019-04-30T06:59:51.180Z,9.10
2019-04-30T07:02:19.664Z,8.38
2019-04-30T07:04:49.140Z,8.83
2019-04-30T07:07:22.674Z,9.00
2019-04-30T07:10:02.727Z,9.95
2019-04-30T07:12:46.307Z,9.38
2019-04-30T07:15:15.210Z,9.40
2019-04-30T07:17:43.847Z,8.90
2019-04-30T07:20:12.485Z,10.13
2019-04-30T07:22:49.806Z,8.65
2019-04-30T07:25:11.470Z,9.53
2019-04-30T07:27:40.273Z,8.70
2019-04-30T07:30:09.942Z,8.50
2019-04-30T07:32:38.908Z,9.45
2019-04-30T07:35:09.387Z,9.20
2019-04-30T07:37:39.160Z,9.48
2019-04-30T07:40:09.088Z,9.30
2019-04-30T07:42:44.480Z,9.95
2019-04-30T07:45:09.688Z,8.23
2019-04-30T07:47:39.578Z,8.65
2019-04-30T07:50:10.621Z,8.58
2019-04-30T07:52:57.716Z,8.35
2019-04-30T07:55:10.186Z,8.10
2019-04-30T07:57:40.415Z,7.65
2019-04-30T08:00:09.730Z,8.60
2019-04-30T08:02:43.726Z,8.23
2019-04-30T08:05:19.796Z,7.83
2019-04-30T08:07:49.081Z,7.67
2019-04-30T08:10:18.948Z,7.60
2019-04-30T08:12:50.139Z,7.80
2019-04-30T08:15:19.782Z,7.45
2019-04-30T08:18:01.863Z,7.55
2019-04-30T08:20:19.650Z,7.70
2019-04-30T08:22:49.387Z,7.95
2019-04-30T08:25:19.933Z,7.67
2019-04-30T08:27:49.293Z,7.45
2019-04-30T08:30:26.313Z,7.37
2019-04-30T08:32:49.947Z,7.08
2019-04-30T08:35:19.744Z,8.03
2019-04-30T08:37:49.750Z,7.10
2019-04-30T08:40:19.092Z,7.03
2019-04-30T08:42:49.621Z,7.28
2019-04-30T08:45:19.707Z,7.83
2019-04-30T08:47:49.343Z,7.33
2019-04-30T08:50:20.115Z,7.35
2019-04-30T08:52:49.833Z,7.37
2019-04-30T08:55:22.044Z,6.55
2019-04-30T08:57:50.010Z,7.67
2019-04-30T09:00:19.551Z,6.75
2019-04-30T09:02:49.204Z,7.05
2019-04-30T09:05:30.593Z,7.50
2019-04-30T09:07:59.804Z,7.78
2019-04-30T09:10:29.435Z,7.87
2019-04-30T09:12:59.803Z,7.92
2019-04-30T09:15:29.101Z,7.25
2019-04-30T09:18:03.858Z,7.28
2019-04-30T09:20:29.285Z,6.92
2019-04-30T09:22:59.559Z,6.95
2019-04-30T09:25:28.805Z,7.50
2019-04-30T09:27:58.826Z,7.75
2019-04-30T09:30:29.796Z,7.40
2019-04-30T09:32:59.517Z,7.50
2019-04-30T09:35:31.850Z,7.45
2019-04-30T09:38:01.432Z,7.53
2019-04-30T09:40:32.191Z,7.60
2019-04-30T09:43:00.432Z,8.50
2019-04-30T09:45:29.279Z,7.35
2019-04-30T09:47:59.249Z,7.67
2019-04-30T09:50:28.938Z,7.58
2019-04-30T09:53:00.344Z,7.45
2019-04-30T09:55:29.052Z,7.40
2019-04-30T09:57:58.863Z,8.05
2019-04-30T10:00:29.491Z,7.45
2019-04-30T10:02:59.748Z,8.25
2019-04-30T10:05:29.261Z,7.47
2019-04-30T10:07:59.413Z,8.05
2019-04-30T10:10:33.762Z,7.90
2019-04-30T10:13:02.436Z,7.15
2019-04-30T10:15:38.477Z,8.63
2019-04-30T10:18:07.345Z,8.13
2019-04-30T10:20:39.891Z,7.80
2019-04-30T10:23:09.651Z,7.55
2019-04-30T10:25:38.376Z,7.92
2019-04-30T10:28:07.161Z,8.15
2019-04-30T10:30:36.023Z,8.10
2019-04-30T10:33:05.078Z,8.38
2019-04-30T10:35:34.127Z,7.78
2019-04-30T10:38:02.896Z,8.95
2019-04-30T10:40:31.561Z,8.68
2019-04-30T10:43:00.178Z,8.35
2019-04-30T10:45:29.292Z,7.42
2019-04-30T10:47:59.229Z,8.20
2019-04-30T10:50:27.989Z,8.75
2019-04-30T10:52:56.666Z,7.45
2019-04-30T10:55:25.229Z,8.80
2019-04-30T10:57:54.257Z,9.20
2019-04-30T11:00:28.666Z,7.97
2019-04-30T11:02:59.240Z,8.20
2019-04-30T11:05:29.261Z,7.62
2019-04-30T11:07:59.398Z,7.95
2019-04-30T11:10:29.005Z,7.42
2019-04-30T11:12:57.583Z,7.65
2019-04-30T11:15:26.185Z,6.83
2019-04-30T11:17:55.286Z,6.67
2019-04-30T11:20:25.139Z,8.33
2019-04-30T11:22:54.901Z,7.58
2019-04-30T11:25:24.026Z,7.17
2019-04-30T11:27:53.490Z,8.03
2019-04-30T11:30:24.397Z,8.10
2019-04-30T11:32:53.366Z,7.78
2019-04-30T11:35:22.219Z,8.03
2019-04-30T11:37:51.157Z,7.30
2019-04-30T11:40:31.590Z,8.68
2019-04-30T11:42:55.491Z,8.75
2019-04-30T11:45:25.623Z,8.18
2019-04-30T11:47:54.283Z,8.60
2019-04-30T11:50:23.966Z,8.73
2019-04-30T11:52:52.507Z,8.40
2019-04-30T11:55:21.158Z,7.90
2019-04-30T11:57:49.817Z,8.30
2019-04-30T12:00:25.230Z,8.28
2019-04-30T12:02:53.911Z,8.05
2019-04-30T12:05:22.479Z,7.90
2019-04-30T12:08:15.951Z,8.75
2019-04-30T12:11:15.266Z,8.45
2019-04-30T12:13:43.105Z,8.08
2019-04-30T12:16:11.649Z,7.90
2019-04-30T12:18:40.267Z,8.70
2019-04-30T12:21:08.908Z,8.25
2019-04-30T12:23:37.610Z,9.00
2019-04-30T12:26:06.270Z,8.63
2019-04-30T12:28:34.867Z,7.80
2019-04-30T12:31:05.791Z,8.43
2019-04-30T12:33:33.668Z,8.60
2019-04-30T12:36:02.218Z,9.25
2019-04-30T12:38:30.809Z,8.50
2019-04-30T12:40:59.457Z,12.98
2019-04-30T12:43:28.124Z,14.70
2019-04-30T12:46:04.838Z,13.98
2019-04-30T12:48:39.691Z,13.40
2019-04-30T12:51:18.509Z,15.03
2019-04-30T12:53:51.632Z,15.68
2019-04-30T12:56:42.420Z,15.05
2019-04-30T12:59:11.128Z,14.18
2019-04-30T13:01:40.005Z,15.15
2019-04-30T13:04:09.835Z,15.00
2019-04-30T13:06:39.186Z,14.55
2019-04-30T13:09:10.823Z,16.10
2019-04-30T13:11:40.523Z,15.32
2019-04-30T13:14:11.059Z,14.95
2019-04-30T13:16:40.095Z,15.23
2019-04-30T13:19:09.290Z,15.48
2019-04-30T13:21:39.506Z,16.40
2019-04-30T13:24:08.385Z,16.67
2019-04-30T13:26:37.051Z,17.20
2019-04-30T13:29:10.302Z,18.07
2019-04-30T13:31:40.275Z,17.65
2019-04-30T13:34:37.133Z,17.60
2019-04-30T13:37:05.876Z,16.32
2019-04-30T13:39:49.864Z,16.80
2019-04-30T13:42:20.098Z,16.87
2019-04-30T13:44:49.379Z,16.65
2019-04-30T13:47:19.206Z,17.77
2019-04-30T13:49:49.505Z,16.48
2019-04-30T13:52:18.139Z,17.02
2019-04-30T13:54:46.823Z,15.03
2019-04-30T13:57:15.532Z,17.25
2019-04-30T13:59:44.237Z,17.70
2019-04-30T14:02:12.841Z,16.45
2019-04-30T14:05:00.529Z,17.20
2019-04-30T14:07:54.118Z,17.85
2019-04-30T14:10:22.744Z,17.45
2019-04-30T14:12:54.420Z,17.57
2019-04-30T14:15:23.051Z,17.73
2019-04-30T14:17:51.621Z,17.73
2019-04-30T14:20:20.277Z,17.07
2019-04-30T14:22:48.829Z,17.02
2019-04-30T14:25:17.444Z,16.80
2019-04-30T14:27:52.252Z,17.52
2019-04-30T14:30:19.172Z,17.80
2019-04-30T14:32:50.552Z,17.00
2019-04-30T14:35:18.734Z,15.65
2019-04-30T14:37:49.451Z,17.25
2019-04-30T14:40:20.129Z,16.32
2019-04-30T14:43:06.169Z,16.48
2019-04-30T14:45:43.163Z,16.23
2019-04-30T14:48:23.156Z,16.60
2019-04-30T14:50:51.055Z,16.73
2019-04-30T14:53:44.646Z,16.80
2019-04-30T14:56:29.386Z,16.62
2019-04-30T14:59:15.399Z,16.17
2019-04-30T15:01:53.938Z,17.82
2019-04-30T15:04:22.651Z,16.70
2019-04-30T15:06:51.255Z,16.05
2019-04-30T15:09:19.880Z,15.48
2019-04-30T15:11:48.745Z,15.90
2019-04-30T15:14:17.456Z,15.60
2019-04-30T15:16:46.069Z,15.43
2019-04-30T15:19:14.714Z,15.43
2019-04-30T15:21:43.266Z,16.35
2019-04-30T15:24:25.393Z,16.75
2019-04-30T15:26:57.847Z,15.90
2019-04-30T15:29:24.381Z,14.47
2019-04-30T15:31:53.038Z,14.73
2019-04-30T15:34:21.777Z,15.15
2019-04-30T15:36:50.421Z,15.00
2019-04-30T15:39:39.486Z,15.05
2019-04-30T15:42:08.834Z,14.98
2019-04-30T15:44:43.273Z,14.25
2019-04-30T15:47:09.230Z,14.65
2019-04-30T15:49:38.086Z,15.75
2019-04-30T15:52:06.679Z,15.38
2019-04-30T15:54:35.408Z,14.07
2019-04-30T15:57:04.046Z,14.07
2019-04-30T15:59:39.482Z,13.08
2019-04-30T16:02:15.421Z,13.88
2019-04-30T16:04:56.688Z,13.55
2019-04-30T16:07:25.202Z,14.35
2019-04-30T16:10:08.915Z,15.18
2019-04-30T16:12:48.717Z,13.58
2019-04-30T16:15:18.541Z,13.50
2019-04-30T16:17:49.258Z,12.90
2019-04-30T16:20:18.169Z,12.90
2019-04-30T16:22:46.709Z,13.28
2019-04-30T16:25:15.402Z,13.25
2019-04-30T16:27:44.251Z,13.35
2019-04-30T16:30:12.927Z,12.03
2019-04-30T16:32:41.614Z,13.03
2019-04-30T16:35:10.500Z,15.08
2019-04-30T16:37:39.056Z,14.47
2019-04-30T16:40:08.278Z,15.48
2019-04-30T16:42:38.971Z,15.10
2019-04-30T16:45:09.309Z,14.65
2019-04-30T16:47:38.049Z,14.73
2019-04-30T16:50:08.831Z,14.83
2019-04-30T16:52:38.986Z,15.85
2019-04-30T16:55:08.226Z,14.55
2019-04-30T16:57:37.178Z,15.28
2019-04-30T17:00:06.217Z,15.78
2019-04-30T17:02:39.302Z,15.63
2019-04-30T17:05:16.857Z,15.70
2019-04-30T17:08:01.785Z,15.58
2019-04-30T17:10:50.467Z,15.30
2019-04-30T17:13:31.257Z,16.07
2019-04-30T17:16:07.048Z,15.30
2019-04-30T17:18:35.661Z,15.25
2019-04-30T17:21:04.303Z,15.60
2019-04-30T17:23:34.018Z,15.35
2019-04-30T17:26:02.677Z,15.55
2019-04-30T17:28:31.271Z,14.73
2019-04-30T17:30:59.895Z,15.00
2019-04-30T17:33:28.647Z,14.68
2019-04-30T17:35:57.304Z,14.25
2019-04-30T17:38:26.224Z,14.60
2019-04-30T17:40:55.026Z,15.63
2019-04-30T17:43:24.497Z,16.65
2019-04-30T17:45:54.693Z,16.75
2019-04-30T17:48:23.388Z,16.75
2019-04-30T17:50:52.038Z,16.67
2019-04-30T17:53:20.688Z,17.70
2019-04-30T17:55:49.457Z,17.32
2019-04-30T17:58:20.549Z,17.57
2019-04-30T18:00:52.392Z,17.92
2019-04-30T18:03:20.988Z,17.55
2019-04-30T18:05:49.785Z,17.05
2019-04-30T18:08:18.428Z,17.60
2019-04-30T18:10:47.141Z,18.05
2019-04-30T18:13:15.835Z,17.10
2019-04-30T18:15:44.515Z,17.02
2019-04-30T18:18:21.491Z,16.20
2019-04-30T18:21:09.203Z,16.87
2019-04-30T18:23:59.977Z,16.02
2019-04-30T18:26:30.110Z,15.72
2019-04-30T18:28:58.876Z,15.40
2019-04-30T18:31:29.427Z,16.02
2019-04-30T18:33:59.324Z,16.42
2019-04-30T18:36:29.393Z,15.00
2019-04-30T18:38:59.034Z,15.68
2019-04-30T18:41:27.984Z,15.93
2019-04-30T18:43:59.577Z,16.30
2019-04-30T18:46:29.233Z,16.55
2019-04-30T18:48:59.229Z,14.95
2019-04-30T18:51:36.525Z,15.25
2019-04-30T18:53:58.429Z,15.32
2019-04-30T18:56:28.927Z,15.48
2019-04-30T18:58:58.682Z,14.63
2019-04-30T19:01:27.336Z,15.38
2019-04-30T19:03:55.992Z,15.20
2019-04-30T19:06:26.155Z,15.83
2019-04-30T19:09:02.081Z,15.15
2019-04-30T19:11:36.514Z,15.65
2019-04-30T19:14:16.872Z,15.70
2019-04-30T19:17:03.073Z,16.48
2019-04-30T19:19:43.400Z,16.35
2019-04-30T19:22:12.103Z,18.55
2019-04-30T19:24:53.517Z,17.50
2019-04-30T19:27:11.638Z,17.02
2019-04-30T19:29:40.302Z,18.90
2019-04-30T19:32:09.524Z,17.37
2019-04-30T19:34:38.993Z,17.30
2019-04-30T19:37:08.674Z,17.02
2019-04-30T19:39:39.121Z,17.27
2019-04-30T19:42:09.070Z,18.75
2019-04-30T19:44:39.436Z,18.07
2019-04-30T19:47:09.291Z,18.27
2019-04-30T19:49:38.983Z,18.50
2019-04-30T19:52:11.117Z,18.17
2019-04-30T19:54:39.312Z,18.95
2019-04-30T19:57:10.125Z,18.05
2019-04-30T19:59:39.709Z,18.25
2019-04-30T20:02:08.292Z,18.62
2019-04-30T20:04:39.749Z,18.30
2019-04-30T20:07:08.835Z,17.42
2019-04-30T20:09:37.776Z,18.70
2019-04-30T20:12:06.345Z,17.80
2019-04-30T20:14:35.050Z,18.82
2019-04-30T20:17:03.668Z,19.35
2019-04-30T20:19:32.318Z,19.45
2019-04-30T20:22:01.075Z,19.87
2019-04-30T20:24:29.855Z,18.73
2019-04-30T20:27:07.125Z,19.07
2019-04-30T20:29:29.126Z,19.27
2019-04-30T20:31:58.996Z,19.60
2019-04-30T20:34:29.250Z,20.15
2019-04-30T20:36:58.331Z,19.85
2019-04-30T20:39:36.850Z,21.57
2019-04-30T20:42:05.557Z,20.97
2019-04-30T20:44:34.216Z,21.87
2019-04-30T20:47:02.904Z,21.77
2019-04-30T20:49:33.773Z,24.32
2019-04-30T20:52:02.632Z,23.60
2019-04-30T20:54:31.317Z,24.27
2019-04-30T20:57:00.238Z,22.65
2019-04-30T20:59:29.224Z,24.07
2019-04-30T21:01:57.960Z,22.80
2019-04-30T21:04:26.690Z,23.57
2019-04-30T21:06:55.826Z,26.87
2019-04-30T21:09:24.691Z,27.37
2019-04-30T21:11:53.620Z,28.87
2019-04-30T21:14:22.294Z,29.72
2019-04-30T21:16:50.997Z,29.10
2019-04-30T21:19:19.746Z,29.40
2019-04-30T21:21:49.713Z,29.27
2019-04-30T21:24:18.470Z,29.63
2019-04-30T21:26:47.179Z,29.23
2019-04-30T21:29:16.203Z,30.00
2019-04-30T21:31:52.933Z,29.27
2019-04-30T21:34:31.565Z,29.55
2019-04-30T21:37:00.279Z,28.95
2019-04-30T21:39:28.850Z,28.23
2019-04-30T21:41:59.326Z,28.55
2019-04-30T21:44:27.809Z,27.65
2019-04-30T21:46:56.453Z,28.30
2019-04-30T21:49:25.072Z,27.98
2019-04-30T21:51:53.680Z,28.45
2019-04-30T21:54:25.168Z,25.48
2019-04-30T21:56:53.823Z,25.82
2019-04-30T21:59:24.607Z,26.82
2019-04-30T22:01:52.734Z,25.40
2019-04-30T22:04:23.594Z,26.95
2019-04-30T22:06:52.101Z,25.72
2019-04-30T22:09:21.207Z,25.40
2019-04-30T22:11:49.922Z,24.80
2019-04-30T22:14:18.667Z,23.65
2019-04-30T22:16:49.331Z,24.27
2019-04-30T22:19:17.795Z,24.40
2019-04-30T22:21:46.629Z,23.05
2019-04-30T22:24:15.311Z,23.30
2019-04-30T22:26:43.998Z,24.72
2019-04-30T22:29:12.733Z,23.30
2019-04-30T22:31:41.432Z,22.98
2019-04-30T22:34:10.084Z,22.42
2019-04-30T22:36:44.645Z,23.27
2019-04-30T22:39:32.359Z,22.77
2019-04-30T22:42:03.174Z,22.60
2019-04-30T22:44:31.929Z,21.60
2019-04-30T22:47:00.752Z,21.07
2019-04-30T22:49:29.481Z,22.35
2019-04-30T22:51:58.158Z,21.42
2019-04-30T22:54:26.846Z,20.60
2019-04-30T22:56:55.540Z,21.57
2019-04-30T22:59:24.257Z,20.23
2019-04-30T23:02:02.122Z,19.02
2019-04-30T23:04:37.624Z,17.85
2019-04-30T23:07:06.445Z,18.73
2019-04-30T23:09:36.058Z,17.82
2019-04-30T23:12:04.973Z,17.40
2019-04-30T23:14:33.666Z,16.85
2019-04-30T23:17:02.343Z,16.65
2019-04-30T23:19:31.006Z,17.07
2019-04-30T23:21:59.689Z,17.02
2019-04-30T23:24:28.434Z,17.27
2019-04-30T23:26:57.190Z,16.62
2019-04-30T23:29:25.859Z,16.60
2019-04-30T23:31:54.607Z,16.85
2019-04-30T23:34:23.350Z,16.27
2019-04-30T23:36:52.143Z,16.25
2019-04-30T23:39:20.822Z,16.17
2019-04-30T23:41:49.521Z,15.70
2019-04-30T23:44:18.253Z,16.12
2019-04-30T23:46:47.098Z,14.95
2019-04-30T23:49:15.808Z,17.25
2019-04-30T23:51:44.499Z,15.00
2019-04-30T23:54:13.235Z,15.72
2019-04-30T23:56:41.886Z,15.95
2019-04-30T23:59:10.593Z,15.53
